Clawson, Utah
Current Conditions -  °F | °C
As of 5:53 PM on Saturday 25 Oct 2014 (Local Time) from KPUC Reporting Station
Clear Clear  
Wind Chill: 66°   Ceiling: Unl
Heat Index: 66°   Visibility: 10mi
Dew Point: 32°   Wind: 9mph
Humidity: 28%   Direction: 120°ESE
Pressure: 30.11"   Gusts: NA
Location:  39.13°N, 111.1°W
Report Text: KPUC 252353Z AUTO 12008KT 10SM CLR 19/00 A3011 RMK AO2 SLP163 T01890000 10217 20178 56018 TSNO
Loading
Personal Weather Stations






























Interactive Weather Map
Tropical Storm Tracking
New forecast layout! Learn more

10-Day Weather Forecast

Advertisements
Track Severe Weather on mobile